createdAt,value
2022-12-18T00:01:26.001Z,-0.18
2022-12-18T00:03:54.581Z,-0.21
2022-12-18T00:06:22.918Z,-0.18
2022-12-18T00:08:50.578Z,-0.06
2022-12-18T00:11:20.241Z,-0.17
2022-12-18T00:13:48.778Z,-0.23
2022-12-18T00:16:21.271Z,-0.28
2022-12-18T00:18:49.807Z,-0.42
2022-12-18T00:21:17.752Z,-0.31
2022-12-18T00:23:46.245Z,-0.22
2022-12-18T00:26:16.424Z,-0.04
2022-12-18T00:28:44.279Z,-0.03
2022-12-18T00:31:13.668Z,0.11
2022-12-18T00:33:42.962Z,0.11
2022-12-18T00:36:13.409Z,0.17
2022-12-18T00:38:41.790Z,0.07
2022-12-18T00:41:10.159Z,0.05
2022-12-18T00:43:37.539Z,-0.05
2022-12-18T00:46:05.816Z,0.04
2022-12-18T00:48:33.743Z,0.12
2022-12-18T00:51:02.647Z,0.03
2022-12-18T00:53:30.085Z,0.04
2022-12-18T00:55:57.537Z,-0.07
2022-12-18T00:58:25.027Z,0.02
2022-12-18T01:00:52.566Z,0.15
2022-12-18T01:03:20.063Z,0.19
2022-12-18T01:05:47.613Z,0.24
2022-12-18T01:08:16.404Z,0.41
2022-12-18T01:10:43.854Z,0.34
2022-12-18T01:13:11.320Z,0.40
2022-12-18T01:15:38.802Z,0.39
2022-12-18T01:18:07.316Z,0.49
2022-12-18T01:20:34.910Z,0.49
2022-12-18T01:23:02.356Z,0.59
2022-12-18T01:25:31.138Z,0.59
2022-12-18T01:27:58.611Z,0.50
2022-12-18T01:30:26.051Z,0.49
2022-12-18T01:32:53.521Z,0.52
2022-12-18T01:35:21.235Z,0.37
2022-12-18T01:37:48.694Z,0.38
2022-12-18T01:40:16.111Z,0.43
2022-12-18T01:42:44.915Z,0.47
2022-12-18T01:45:29.362Z,0.14
2022-12-18T01:47:59.698Z,0.22
2022-12-18T01:50:32.684Z,0.21
2022-12-18T01:53:04.020Z,0.22
2022-12-18T01:55:37.417Z,-0.03
2022-12-18T01:58:06.791Z,0.13
2022-12-18T02:00:34.245Z,-0.10
2022-12-18T02:03:01.923Z,-0.29
2022-12-18T02:05:41.935Z,-0.29
2022-12-18T02:08:14.080Z,-0.33
2022-12-18T02:10:48.755Z,-0.31
2022-12-18T02:13:22.648Z,-0.39
2022-12-18T02:15:59.163Z,-0.40
2022-12-18T02:18:31.663Z,-0.37
2022-12-18T02:21:10.024Z,-0.31
2022-12-18T02:23:49.888Z,-0.29
2022-12-18T02:26:22.123Z,-0.07
2022-12-18T02:28:54.539Z,-0.20
2022-12-18T02:31:26.527Z,-0.35
2022-12-18T02:34:00.589Z,-0.38
2022-12-18T02:36:30.259Z,-0.59
2022-12-18T02:39:00.129Z,-0.70
2022-12-18T02:41:30.435Z,-0.61
2022-12-18T02:43:59.611Z,-0.56
2022-12-18T02:46:31.945Z,-0.57
2022-12-18T02:49:07.571Z,-0.58
2022-12-18T02:51:46.813Z,-0.49
2022-12-18T02:54:23.409Z,-0.54
2022-12-18T02:56:56.208Z,-0.57
2022-12-18T02:59:31.439Z,-0.56
2022-12-18T03:02:05.200Z,-0.52
2022-12-18T03:04:39.962Z,-0.42
2022-12-18T03:07:12.436Z,-0.39
2022-12-18T03:09:45.464Z,-0.48
2022-12-18T03:12:24.680Z,-0.53
2022-12-18T03:14:56.995Z,-0.54
2022-12-18T03:17:27.256Z,-0.47
2022-12-18T03:19:57.783Z,-0.51
2022-12-18T03:22:29.036Z,-0.58
2022-12-18T03:24:59.073Z,-0.53
2022-12-18T03:27:30.989Z,-0.45
2022-12-18T03:30:08.285Z,-0.28
2022-12-18T03:32:41.461Z,-0.29
2022-12-18T03:35:18.922Z,-0.30
2022-12-18T03:37:46.527Z,-0.09
2022-12-18T03:40:14.166Z,-0.33
2022-12-18T03:42:49.392Z,-0.15
2022-12-18T03:45:24.144Z,-0.24
2022-12-18T03:48:01.140Z,-0.26
2022-12-18T03:50:36.032Z,-0.23
2022-12-18T03:53:14.862Z,-0.30
2022-12-18T03:55:44.060Z,-0.23
2022-12-18T03:58:17.440Z,-0.10
2022-12-18T04:00:45.863Z,-0.32
2022-12-18T04:03:15.636Z,-0.13
2022-12-18T04:05:45.529Z,-0.20
2022-12-18T04:08:13.946Z,-0.14
2022-12-18T04:10:41.451Z,0.18
2022-12-18T04:13:09.387Z,0.04
2022-12-18T04:15:39.707Z,0.02
2022-12-18T04:18:07.198Z,-0.04
2022-12-18T04:20:34.648Z,0.00
2022-12-18T04:23:02.101Z,-0.05
2022-12-18T04:25:29.561Z,-0.25
2022-12-18T04:27:57.001Z,-0.36
2022-12-18T04:30:24.426Z,-0.17
2022-12-18T04:32:53.183Z,-0.16
2022-12-18T04:35:20.658Z,-0.02
2022-12-18T04:37:48.127Z,-0.10
2022-12-18T04:40:15.678Z,-0.09
2022-12-18T04:42:43.178Z,-0.18
2022-12-18T04:45:11.290Z,-0.16
2022-12-18T04:47:38.761Z,-0.04
2022-12-18T04:50:08.617Z,0.23
2022-12-18T04:52:36.128Z,0.41
2022-12-18T04:55:04.106Z,0.30
2022-12-18T04:57:31.649Z,0.24
2022-12-18T04:59:59.108Z,0.21
2022-12-18T05:02:26.688Z,0.47
2022-12-18T05:04:54.195Z,0.37
2022-12-18T05:07:22.971Z,0.24
2022-12-18T05:09:50.408Z,0.44
2022-12-18T05:12:17.915Z,0.26
2022-12-18T05:14:45.340Z,0.29
2022-12-18T05:17:13.172Z,0.43
2022-12-18T05:19:40.660Z,0.66
2022-12-18T05:22:08.132Z,0.79
2022-12-18T05:24:37.194Z,0.78
2022-12-18T05:27:05.134Z,0.79
2022-12-18T05:29:32.653Z,0.81
2022-12-18T05:32:00.112Z,0.68
2022-12-18T05:34:27.534Z,0.71
2022-12-18T05:36:54.967Z,0.62
2022-12-18T05:39:22.417Z,0.67
2022-12-18T05:41:51.213Z,0.56
2022-12-18T05:44:18.835Z,0.47
2022-12-18T05:46:46.414Z,0.60
2022-12-18T05:49:13.913Z,0.81
2022-12-18T05:51:41.369Z,0.85
2022-12-18T05:54:09.484Z,0.96
2022-12-18T05:56:37.784Z,0.87
2022-12-18T05:59:06.591Z,0.86
2022-12-18T06:01:34.071Z,0.92
2022-12-18T06:04:01.602Z,0.66
2022-12-18T06:06:30.696Z,0.71
2022-12-18T06:08:59.520Z,0.71
2022-12-18T06:11:28.272Z,0.75
2022-12-18T06:13:59.065Z,0.67
2022-12-18T06:16:29.180Z,0.60
2022-12-18T06:18:58.425Z,0.46
2022-12-18T06:21:25.905Z,0.37
2022-12-18T06:23:53.494Z,0.36
2022-12-18T06:26:26.174Z,0.11
2022-12-18T06:28:55.505Z,0.04
2022-12-18T06:31:23.061Z,0.05
2022-12-18T06:33:51.951Z,0.09
2022-12-18T06:36:20.561Z,0.17
2022-12-18T06:38:48.047Z,0.31
2022-12-18T06:41:18.187Z,0.32
2022-12-18T06:43:46.556Z,0.36
2022-12-18T06:46:14.561Z,0.34
2022-12-18T06:48:42.430Z,0.43
2022-12-18T06:51:11.237Z,0.24
2022-12-18T06:53:38.956Z,0.33
2022-12-18T06:56:10.673Z,0.27
2022-12-18T06:58:38.656Z,0.32
2022-12-18T07:01:08.440Z,0.23
2022-12-18T07:03:36.176Z,0.29
2022-12-18T07:06:04.244Z,0.32
2022-12-18T07:08:33.998Z,0.11
2022-12-18T07:11:04.809Z,0.06
2022-12-18T07:13:32.426Z,0.16
2022-12-18T07:16:08.611Z,0.01
2022-12-18T07:18:40.456Z,0.03
2022-12-18T07:21:09.732Z,-0.05
2022-12-18T07:23:39.117Z,-0.16
2022-12-18T07:26:08.745Z,0.03
2022-12-18T07:28:37.391Z,-0.10
2022-12-18T07:31:05.711Z,-0.04
2022-12-18T07:33:35.478Z,0.16
2022-12-18T07:36:04.156Z,0.16
2022-12-18T07:38:31.871Z,0.47
2022-12-18T07:41:04.147Z,0.47
2022-12-18T07:43:34.783Z,0.63
2022-12-18T07:46:02.857Z,0.66
2022-12-18T07:48:30.588Z,0.51
2022-12-18T07:51:00.398Z,0.34
2022-12-18T07:53:28.123Z,0.29
2022-12-18T07:56:25.515Z,0.28
2022-12-18T07:58:49.172Z,0.50
2022-12-18T08:01:16.801Z,0.53
2022-12-18T08:03:44.882Z,0.56
2022-12-18T08:06:12.464Z,0.81
2022-12-18T08:08:41.514Z,0.96
2022-12-18T08:11:08.989Z,1.18
2022-12-18T08:13:36.683Z,1.01
2022-12-18T08:16:08.212Z,1.09
2022-12-18T08:18:36.688Z,1.14
2022-12-18T08:21:10.453Z,1.24
2022-12-18T08:23:42.716Z,1.35
2022-12-18T08:26:11.018Z,1.35
2022-12-18T08:28:38.585Z,1.37
2022-12-18T08:31:08.299Z,1.28
2022-12-18T08:33:37.083Z,1.07
2022-12-18T08:36:05.897Z,1.06
2022-12-18T08:38:33.635Z,1.19
2022-12-18T08:41:01.989Z,1.08
2022-12-18T08:43:47.086Z,1.29
2022-12-18T08:46:16.553Z,1.27
2022-12-18T08:48:44.539Z,1.02
2022-12-18T08:51:12.226Z,1.23
2022-12-18T08:53:40.272Z,1.43
2022-12-18T08:56:09.353Z,1.42
2022-12-18T08:58:36.795Z,1.37
2022-12-18T09:01:06.215Z,1.44
2022-12-18T09:03:35.436Z,1.49
2022-12-18T09:06:03.407Z,1.33
2022-12-18T09:08:30.999Z,1.22
2022-12-18T09:10:58.508Z,1.40
2022-12-18T09:13:25.977Z,1.48
2022-12-18T09:15:56.116Z,1.51
2022-12-18T09:18:24.831Z,1.39
2022-12-18T09:20:53.962Z,1.43
2022-12-18T09:23:22.021Z,1.40
2022-12-18T09:25:49.547Z,1.45
2022-12-18T09:28:19.357Z,1.49
2022-12-18T09:30:50.505Z,1.76
2022-12-18T09:33:18.481Z,1.68
2022-12-18T09:35:47.335Z,1.61
2022-12-18T09:38:18.888Z,1.87
2022-12-18T09:40:49.819Z,1.86
2022-12-18T09:43:20.740Z,2.06
2022-12-18T09:45:51.579Z,2.13
2022-12-18T09:48:24.392Z,2.23
2022-12-18T09:50:53.393Z,2.22
2022-12-18T09:53:27.101Z,2.39
2022-12-18T09:55:55.299Z,2.63
2022-12-18T09:58:28.512Z,2.74
2022-12-18T10:00:56.328Z,2.71
2022-12-18T10:03:24.428Z,2.60
2022-12-18T10:06:03.869Z,2.50
2022-12-18T10:08:43.954Z,2.58
2022-12-18T10:11:33.051Z,2.66
2022-12-18T10:14:08.978Z,2.79
2022-12-18T10:16:44.089Z,2.84
2022-12-18T10:19:27.055Z,2.59
2022-12-18T10:22:05.286Z,2.72
2022-12-18T10:24:39.652Z,2.60
2022-12-18T10:27:15.736Z,2.72
2022-12-18T10:29:44.550Z,2.91
2022-12-18T10:32:17.837Z,2.87
2022-12-18T10:34:48.887Z,2.91
2022-12-18T10:37:20.201Z,2.93
2022-12-18T10:40:09.235Z,3.04
2022-12-18T10:42:36.763Z,3.21
2022-12-18T10:45:14.453Z,3.39
2022-12-18T10:47:45.327Z,3.18
2022-12-18T10:50:26.094Z,3.26
2022-12-18T10:52:58.430Z,3.30
2022-12-18T10:55:33.175Z,3.58
2022-12-18T10:58:22.226Z,3.70
2022-12-18T11:01:05.871Z,3.79
2022-12-18T11:03:37.391Z,3.82
2022-12-18T11:06:07.878Z,3.90
2022-12-18T11:08:35.660Z,3.93
2022-12-18T11:11:06.044Z,4.00
2022-12-18T11:13:33.637Z,3.96
2022-12-18T11:16:01.446Z,3.97
2022-12-18T11:18:31.652Z,4.02
2022-12-18T11:21:02.089Z,4.12
2022-12-18T11:23:29.866Z,4.01
2022-12-18T11:25:59.868Z,4.12
2022-12-18T11:28:37.840Z,4.20
2022-12-18T11:31:28.334Z,4.20
2022-12-18T11:36:50.095Z,4.15
2022-12-18T11:39:22.499Z,4.20
2022-12-18T11:42:13.325Z,4.17
2022-12-18T11:44:48.656Z,4.25
2022-12-18T11:47:26.500Z,4.24
2022-12-18T11:49:57.832Z,4.27
2022-12-18T11:52:29.978Z,4.25
2022-12-18T11:55:02.608Z,4.34
2022-12-18T11:57:39.827Z,4.17
2022-12-18T12:00:16.794Z,4.08
2022-12-18T12:03:10.565Z,4.12
2022-12-18T12:05:50.895Z,4.11
2022-12-18T12:08:28.991Z,4.18
2022-12-18T12:11:06.632Z,4.04
2022-12-18T12:13:44.014Z,4.08
2022-12-18T12:16:20.049Z,3.98
2022-12-18T12:19:03.457Z,3.99
2022-12-18T12:21:40.547Z,3.93
2022-12-18T12:24:25.316Z,4.01
2022-12-18T12:27:02.310Z,4.17
2022-12-18T12:29:44.521Z,4.17
2022-12-18T12:32:29.521Z,4.27
2022-12-18T12:35:11.139Z,3.95
2022-12-18T12:37:50.470Z,3.92
2022-12-18T12:40:51.362Z,3.74
2022-12-18T12:43:23.204Z,3.78
2022-12-18T12:45:54.752Z,3.96
2022-12-18T12:48:35.093Z,4.03
2022-12-18T12:51:06.051Z,3.86
2022-12-18T12:53:40.168Z,3.64
2022-12-18T12:56:12.009Z,3.67
2022-12-18T12:58:50.475Z,3.55
2022-12-18T13:01:27.322Z,3.57
2022-12-18T13:04:05.129Z,3.68
2022-12-18T13:06:44.649Z,3.92
2022-12-18T13:09:12.607Z,3.91
2022-12-18T13:12:00.630Z,4.08
2022-12-18T13:14:34.532Z,4.09
2022-12-18T13:17:28.400Z,4.06
2022-12-18T13:20:08.304Z,4.00
2022-12-18T13:22:39.036Z,3.82
2022-12-18T13:25:38.287Z,3.80
2022-12-18T13:28:12.342Z,3.61
2022-12-18T13:30:56.948Z,3.70
2022-12-18T13:36:38.232Z,3.32
2022-12-18T13:39:28.924Z,3.34
2022-12-18T13:43:00.532Z,3.38
2022-12-18T13:45:42.424Z,3.47
2022-12-18T13:48:22.497Z,3.29
2022-12-18T13:51:01.438Z,3.19
2022-12-18T13:53:35.065Z,3.09
2022-12-18T13:56:03.852Z,2.84
2022-12-18T13:58:31.431Z,2.86
2022-12-18T14:01:00.161Z,2.78
2022-12-18T14:03:30.572Z,2.63
2022-12-18T14:06:03.066Z,2.65
2022-12-18T14:08:39.578Z,2.76
2022-12-18T14:11:08.610Z,2.60
2022-12-18T14:13:43.154Z,2.51
2022-12-18T14:16:15.918Z,2.61
2022-12-18T14:18:47.093Z,2.64
2022-12-18T14:21:24.731Z,2.82
2022-12-18T14:24:14.043Z,2.55
2022-12-18T14:26:42.281Z,2.59
2022-12-18T14:29:25.478Z,2.59
2022-12-18T14:32:18.310Z,2.54
2022-12-18T14:34:47.498Z,2.52
2022-12-18T14:37:16.436Z,2.63
2022-12-18T14:39:57.484Z,2.66
2022-12-18T14:42:28.730Z,2.43
2022-12-18T14:45:29.920Z,2.50
2022-12-18T14:47:57.461Z,2.60
2022-12-18T14:50:25.336Z,2.34
2022-12-18T14:52:53.111Z,2.64
2022-12-18T14:55:23.272Z,2.37
2022-12-18T14:57:53.158Z,2.42
2022-12-18T15:00:23.022Z,2.38
2022-12-18T15:02:54.812Z,2.29
2022-12-18T15:05:28.341Z,2.18
2022-12-18T15:07:57.611Z,2.09
2022-12-18T15:10:28.358Z,2.16
2022-12-18T15:13:10.080Z,2.10
2022-12-18T15:15:48.667Z,2.11
2022-12-18T15:18:18.858Z,2.02
2022-12-18T15:20:49.182Z,2.27
2022-12-18T15:23:19.472Z,2.15
2022-12-18T15:25:49.902Z,2.08
2022-12-18T15:28:25.118Z,2.03
2022-12-18T15:31:05.012Z,2.22
2022-12-18T15:33:34.750Z,1.97
2022-12-18T15:36:04.733Z,2.10
2022-12-18T15:38:32.626Z,2.17
2022-12-18T15:41:01.700Z,2.04
2022-12-18T15:43:35.599Z,1.91
2022-12-18T15:46:05.139Z,2.00
2022-12-18T15:48:34.553Z,1.87
2022-12-18T15:51:02.356Z,1.83
2022-12-18T15:53:32.994Z,1.86
2022-12-18T15:56:19.131Z,1.75
2022-12-18T15:58:46.547Z,1.72
2022-12-18T16:01:27.886Z,1.68
2022-12-18T16:03:55.638Z,1.53
2022-12-18T16:06:23.782Z,1.52
2022-12-18T16:08:51.563Z,1.49
2022-12-18T16:11:38.794Z,1.47
2022-12-18T16:14:08.547Z,1.53
2022-12-18T16:16:35.995Z,1.52
2022-12-18T16:19:03.445Z,1.46
2022-12-18T16:21:34.081Z,1.50
2022-12-18T16:24:01.752Z,1.60
2022-12-18T16:26:30.572Z,1.49
2022-12-18T16:28:57.991Z,1.40
2022-12-18T16:31:25.457Z,1.56
2022-12-18T16:34:14.744Z,1.48
2022-12-18T16:36:42.190Z,1.65
2022-12-18T16:39:09.623Z,1.45
2022-12-18T16:41:38.420Z,1.70
2022-12-18T16:44:05.967Z,1.63
2022-12-18T16:46:33.515Z,1.58
2022-12-18T16:49:01.597Z,1.67
2022-12-18T16:51:29.668Z,1.86
2022-12-18T16:53:57.825Z,1.76
2022-12-18T16:56:25.788Z,1.85
2022-12-18T16:58:56.567Z,1.79
2022-12-18T17:01:24.758Z,1.66
2022-12-18T17:03:56.110Z,1.70
2022-12-18T17:06:24.298Z,1.57
2022-12-18T17:08:56.380Z,1.56
2022-12-18T17:11:24.857Z,1.69
2022-12-18T17:13:54.723Z,1.70
2022-12-18T17:16:23.071Z,1.62
2022-12-18T17:18:50.958Z,1.49
2022-12-18T17:21:18.459Z,1.64
2022-12-18T17:23:46.001Z,1.59
2022-12-18T17:26:14.541Z,1.49
2022-12-18T17:28:42.985Z,1.61
2022-12-18T17:31:17.671Z,1.56
2022-12-18T17:33:45.450Z,1.46
2022-12-18T17:36:13.050Z,1.53
2022-12-18T17:38:40.988Z,1.59
2022-12-18T17:41:11.191Z,1.55
2022-12-18T17:43:45.612Z,1.64
2022-12-18T17:46:16.001Z,1.61
2022-12-18T17:48:43.451Z,1.53
2022-12-18T17:51:45.442Z,1.56
2022-12-18T17:54:12.980Z,1.42
2022-12-18T17:56:40.603Z,1.40
2022-12-18T17:59:08.772Z,1.11
2022-12-18T18:01:44.026Z,1.31
2022-12-18T18:04:12.762Z,1.13
2022-12-18T18:06:40.329Z,1.09
2022-12-18T18:09:08.230Z,1.07
2022-12-18T18:12:02.282Z,0.99
2022-12-18T18:14:29.953Z,1.18
2022-12-18T18:17:04.085Z,1.04
2022-12-18T18:19:33.296Z,1.11
2022-12-18T18:22:01.366Z,0.92
2022-12-18T18:24:29.578Z,0.86
2022-12-18T18:26:59.347Z,0.98
2022-12-18T18:29:30.158Z,0.98
2022-12-18T18:32:00.108Z,1.02
2022-12-18T18:34:30.179Z,0.77
2022-12-18T18:37:01.088Z,0.70
2022-12-18T18:39:28.859Z,0.96
2022-12-18T18:41:56.396Z,0.91
2022-12-18T18:44:25.969Z,0.74
2022-12-18T18:46:55.005Z,0.80
2022-12-18T18:49:26.939Z,0.80
2022-12-18T18:51:55.312Z,0.82
2022-12-18T18:54:22.752Z,0.78
2022-12-18T18:59:38.037Z,0.63
2022-12-18T19:02:05.859Z,0.78
2022-12-18T19:04:36.371Z,0.84
2022-12-18T19:07:05.976Z,0.80
2022-12-18T19:09:33.531Z,0.79
2022-12-18T19:12:19.012Z,0.80
2022-12-18T19:14:46.634Z,0.87
2022-12-18T19:17:14.076Z,1.03
2022-12-18T19:19:43.069Z,1.04
2022-12-18T19:22:10.916Z,1.12
2022-12-18T19:24:38.635Z,1.24
2022-12-18T19:27:06.113Z,1.11
2022-12-18T19:29:33.603Z,1.05
2022-12-18T19:32:01.388Z,1.07
2022-12-18T19:34:28.874Z,1.00
2022-12-18T19:37:00.122Z,0.99
2022-12-18T19:39:28.144Z,0.89
2022-12-18T19:41:55.631Z,1.16
2022-12-18T19:44:23.081Z,0.93
2022-12-18T19:46:51.676Z,0.92
2022-12-18T19:49:22.829Z,0.89
2022-12-18T19:51:50.720Z,0.95
2022-12-18T19:54:19.654Z,1.12
2022-12-18T19:56:47.473Z,1.06
2022-12-18T19:59:16.432Z,1.07
2022-12-18T20:01:43.995Z,0.95
2022-12-18T20:04:11.612Z,0.94
2022-12-18T20:06:48.264Z,1.13
2022-12-18T20:09:16.306Z,0.97
2022-12-18T20:11:45.400Z,1.24
2022-12-18T20:14:19.647Z,1.11
2022-12-18T20:16:51.908Z,0.98
2022-12-18T20:19:20.275Z,0.96
2022-12-18T20:21:48.280Z,1.16
2022-12-18T20:24:15.796Z,1.04
2022-12-18T20:26:44.665Z,1.10
2022-12-18T20:29:12.214Z,1.03
2022-12-18T20:31:39.744Z,1.05
2022-12-18T20:34:07.246Z,1.22
2022-12-18T20:36:36.375Z,1.26
2022-12-18T20:39:07.560Z,1.07
2022-12-18T20:41:37.994Z,1.19
2022-12-18T20:44:21.441Z,1.29
2022-12-18T20:46:50.327Z,1.05
2022-12-18T20:49:17.980Z,1.21
2022-12-18T20:51:45.423Z,1.21
2022-12-18T20:54:12.864Z,1.19
2022-12-18T20:56:40.296Z,1.10
2022-12-18T20:59:10.532Z,1.19
2022-12-18T21:01:38.805Z,1.23
2022-12-18T21:04:08.967Z,1.19
2022-12-18T21:06:36.943Z,1.10
2022-12-18T21:09:12.551Z,1.24
2022-12-18T21:11:57.531Z,1.24
2022-12-18T21:14:28.336Z,1.29
2022-12-18T21:16:56.736Z,1.42
2022-12-18T21:19:27.092Z,1.31
2022-12-18T21:21:55.944Z,1.40
2022-12-18T21:24:24.124Z,1.31
2022-12-18T21:26:52.478Z,1.42
2022-12-18T21:29:22.079Z,1.43
2022-12-18T21:31:52.363Z,1.50
2022-12-18T21:34:22.858Z,1.36
2022-12-18T21:36:50.807Z,1.34
2022-12-18T21:39:18.847Z,1.41
2022-12-18T21:42:18.278Z,1.41
2022-12-18T21:44:48.710Z,1.38
2022-12-18T21:47:22.586Z,1.24
2022-12-18T21:49:50.972Z,1.40
2022-12-18T21:52:18.444Z,1.56
2022-12-18T21:54:45.873Z,1.48
2022-12-18T21:57:13.983Z,1.55
2022-12-18T21:59:43.277Z,1.46
2022-12-18T22:02:14.026Z,1.48
2022-12-18T22:04:43.299Z,1.45
2022-12-18T22:07:11.637Z,1.33
2022-12-18T22:09:39.465Z,1.44
2022-12-18T22:12:08.853Z,1.38
2022-12-18T22:14:36.358Z,1.43
2022-12-18T22:17:03.985Z,1.46
2022-12-18T22:19:31.456Z,1.48
2022-12-18T22:22:00.279Z,1.42
2022-12-18T22:24:29.089Z,1.26
2022-12-18T22:27:02.160Z,1.44
2022-12-18T22:29:47.911Z,1.21
2022-12-18T22:32:18.934Z,1.28
2022-12-18T22:35:03.246Z,1.25
2022-12-18T22:37:35.008Z,1.11
2022-12-18T22:40:03.262Z,1.17
2022-12-18T22:42:32.437Z,1.44
2022-12-18T22:45:00.217Z,1.23
2022-12-18T22:47:30.209Z,1.23
2022-12-18T22:49:58.213Z,1.34
2022-12-18T22:52:25.880Z,1.28
2022-12-18T22:54:55.040Z,1.28
2022-12-18T22:57:23.302Z,1.33
2022-12-18T22:59:51.223Z,1.31
2022-12-18T23:02:19.398Z,1.54
2022-12-18T23:04:47.428Z,1.52
2022-12-18T23:07:14.912Z,1.29
2022-12-18T23:09:42.415Z,1.32
2022-12-18T23:12:15.988Z,1.29
2022-12-18T23:14:43.743Z,1.41
2022-12-18T23:17:11.260Z,1.32
2022-12-18T23:19:41.653Z,1.41
2022-12-18T23:22:11.928Z,1.39
2022-12-18T23:24:39.577Z,1.44
2022-12-18T23:27:11.368Z,1.42
2022-12-18T23:29:41.168Z,1.43
2022-12-18T23:32:09.009Z,1.43
2022-12-18T23:34:36.529Z,1.50
2022-12-18T23:37:04.107Z,1.45
2022-12-18T23:39:31.596Z,1.45
2022-12-18T23:41:59.446Z,1.53
2022-12-18T23:44:27.399Z,1.68
2022-12-18T23:46:56.407Z,1.53
2022-12-18T23:49:24.343Z,1.50
2022-12-18T23:51:51.862Z,1.54
2022-12-18T23:54:23.220Z,1.50
2022-12-18T23:57:01.016Z,1.54
2022-12-18T23:59:28.478Z,1.54
